createdAt,value
2017-09-13T00:02:23.059Z,97382.89
2017-09-13T00:04:51.404Z,97375.05
2017-09-13T00:07:19.731Z,97363.78
2017-09-13T00:09:48.841Z,97356.91
2017-09-13T00:12:17.930Z,97359.49
2017-09-13T00:14:47.072Z,97357.31
2017-09-13T00:17:15.399Z,97350.05
2017-09-13T00:19:44.510Z,97344.59
2017-09-13T00:22:13.599Z,97335.17
2017-09-13T00:24:42.687Z,97318.37
2017-09-13T00:27:11.037Z,97320.09
2017-09-13T00:29:39.359Z,97320.75
2017-09-13T00:32:08.447Z,97306.92
2017-09-13T00:34:36.790Z,97311.17
2017-09-13T00:37:05.114Z,97308.01
2017-09-13T00:39:34.207Z,97297.56
2017-09-13T00:42:03.317Z,97291.20
2017-09-13T00:44:32.401Z,97280.78
2017-09-13T00:47:00.758Z,97271.73
2017-09-13T00:49:29.078Z,97272.94
2017-09-13T00:51:58.180Z,97265.64
2017-09-13T00:54:27.298Z,97262.50
2017-09-13T00:56:55.617Z,97262.91
2017-09-13T00:59:23.967Z,97259.94
2017-09-13T01:01:52.315Z,97260.73
2017-09-13T01:04:20.671Z,97243.94
2017-09-13T01:06:48.994Z,97248.50
2017-09-13T01:09:17.319Z,97237.28
2017-09-13T01:11:45.667Z,97229.44
2017-09-13T01:14:13.983Z,97230.08
2017-09-13T01:16:42.319Z,97223.14
2017-09-13T01:19:10.666Z,97225.27
2017-09-13T01:21:39.751Z,97217.23
2017-09-13T01:24:08.098Z,97207.19
2017-09-13T01:26:36.421Z,97194.89
2017-09-13T01:29:04.767Z,97183.87
2017-09-13T01:31:33.123Z,97177.84
2017-09-13T01:34:01.440Z,97173.48
2017-09-13T01:36:29.759Z,97157.50
2017-09-13T01:38:58.098Z,97156.38
2017-09-13T01:41:26.434Z,97160.00
2017-09-13T01:43:54.774Z,97153.58
2017-09-13T01:46:23.858Z,97152.73
2017-09-13T01:48:52.180Z,97134.06
2017-09-13T01:51:20.523Z,97136.92
2017-09-13T01:53:48.851Z,97125.91
2017-09-13T01:56:17.194Z,97115.23
2017-09-13T01:58:46.274Z,97098.38
2017-09-13T02:01:14.619Z,97087.56
2017-09-13T02:03:42.933Z,97074.98
2017-09-13T02:06:11.251Z,97063.65
2017-09-13T02:08:39.586Z,97057.75
2017-09-13T02:11:07.906Z,97053.37
2017-09-13T02:13:36.986Z,97039.63
2017-09-13T02:16:06.091Z,97038.78
2017-09-13T02:18:35.174Z,97025.77
2017-09-13T02:21:03.521Z,97019.30
2017-09-13T02:23:31.842Z,97017.27
2017-09-13T02:26:00.942Z,97018.52
2017-09-13T02:28:30.055Z,97020.47
2017-09-13T02:30:58.383Z,97016.84
2017-09-13T02:33:26.698Z,97015.67
2017-09-13T02:35:55.804Z,96994.07
2017-09-13T02:38:24.890Z,96985.98
2017-09-13T02:40:53.982Z,96978.93
2017-09-13T02:43:22.320Z,96965.00
2017-09-13T02:45:50.646Z,96950.35
2017-09-13T02:48:19.763Z,96932.96
2017-09-13T02:50:48.842Z,96917.45
2017-09-13T02:53:17.955Z,96915.20
2017-09-13T02:55:47.043Z,96903.89
2017-09-13T02:58:16.126Z,96896.88
2017-09-13T03:00:44.470Z,96901.41
2017-09-13T03:03:12.787Z,96899.28
2017-09-13T03:05:41.129Z,96895.77
2017-09-13T03:08:09.446Z,96889.97
2017-09-13T03:10:37.777Z,96890.53
2017-09-13T03:13:06.121Z,96869.69
2017-09-13T03:15:35.202Z,96860.45
2017-09-13T03:18:03.547Z,96849.01
2017-09-13T03:20:31.862Z,96850.23
2017-09-13T03:23:00.189Z,96839.64
2017-09-13T03:25:28.540Z,96833.64
2017-09-13T03:27:57.622Z,96827.88
2017-09-13T03:30:25.940Z,96822.27
2017-09-13T03:32:55.170Z,96817.97
2017-09-13T03:35:23.493Z,96815.27
2017-09-13T03:37:52.578Z,96807.05
2017-09-13T03:40:20.922Z,96820.64
2017-09-13T03:42:49.242Z,96808.68
2017-09-13T03:45:18.343Z,96814.77
2017-09-13T03:47:47.458Z,96821.00
2017-09-13T03:50:16.544Z,96819.16
2017-09-13T03:52:45.655Z,96796.16
2017-09-13T03:55:13.977Z,96766.95
2017-09-13T03:57:42.293Z,96763.69
2017-09-13T04:00:11.474Z,96755.68
2017-09-13T04:02:39.790Z,96745.72
2017-09-13T04:05:08.874Z,96734.23
2017-09-13T04:07:37.981Z,96748.48
2017-09-13T04:10:07.070Z,96739.11
2017-09-13T04:12:36.195Z,96715.34
2017-09-13T04:15:04.521Z,96714.68
2017-09-13T04:17:32.838Z,96700.11
2017-09-13T04:20:01.947Z,96700.91
2017-09-13T04:22:30.270Z,96713.46
2017-09-13T04:24:58.609Z,96707.69
2017-09-13T04:27:26.925Z,96703.64
2017-09-13T04:29:55.250Z,96700.53
2017-09-13T04:32:24.355Z,96699.80
2017-09-13T04:34:53.445Z,96692.47
2017-09-13T04:37:22.526Z,96691.80
2017-09-13T04:39:50.866Z,96689.45
2017-09-13T04:42:19.182Z,96686.28
2017-09-13T04:44:47.528Z,96676.52
2017-09-13T04:47:15.867Z,96682.55
2017-09-13T04:49:44.979Z,96677.31
2017-09-13T04:52:13.309Z,96663.94
2017-09-13T04:54:42.630Z,96663.71
2017-09-13T04:57:11.031Z,96656.94
2017-09-13T04:59:40.113Z,96658.65
2017-09-13T05:02:09.224Z,96652.52
2017-09-13T05:04:38.307Z,96649.53
2017-09-13T05:07:07.414Z,96644.72
2017-09-13T05:09:36.494Z,96632.44
2017-09-13T05:12:04.807Z,96639.50
2017-09-13T05:14:33.153Z,96637.80
2017-09-13T05:17:01.485Z,96627.91
2017-09-13T05:19:29.803Z,96632.86
2017-09-13T05:21:58.146Z,96606.27
2017-09-13T05:24:26.468Z,96618.28
2017-09-13T05:26:54.838Z,96600.16
2017-09-13T05:29:23.156Z,96597.37
2017-09-13T05:31:52.283Z,96596.08
2017-09-13T05:34:20.598Z,96597.20
2017-09-13T05:36:49.010Z,96593.37
2017-09-13T05:39:18.114Z,96584.93
2017-09-13T05:41:47.261Z,96585.03
2017-09-13T05:44:15.609Z,96583.14
2017-09-13T05:46:43.922Z,96570.47
2017-09-13T05:49:12.286Z,96580.81
2017-09-13T05:51:40.598Z,96576.30
2017-09-13T05:54:08.962Z,96568.04
2017-09-13T05:56:37.310Z,96568.98
2017-09-13T05:59:05.623Z,96561.66
2017-09-13T06:01:33.969Z,96564.88
2017-09-13T06:04:02.286Z,96554.95
2017-09-13T06:06:30.606Z,96550.13
2017-09-13T06:08:59.710Z,96549.19
2017-09-13T06:11:28.792Z,96555.20
2017-09-13T06:13:57.902Z,96546.86
2017-09-13T06:16:26.987Z,96537.91
2017-09-13T06:18:56.131Z,96539.05
2017-09-13T06:21:24.430Z,96526.47
2017-09-13T06:23:52.778Z,96524.25
2017-09-13T06:26:21.094Z,96524.55
2017-09-13T06:28:49.409Z,96512.89
2017-09-13T06:31:18.523Z,96522.37
2017-09-13T06:33:46.838Z,96513.02
2017-09-13T06:36:15.155Z,96520.47
2017-09-13T06:38:43.494Z,96511.52
2017-09-13T06:41:11.811Z,96507.87
2017-09-13T06:43:40.130Z,96511.00
2017-09-13T06:46:08.474Z,96514.48
2017-09-13T06:48:36.790Z,96500.50
2017-09-13T06:51:05.110Z,96502.84
2017-09-13T06:53:33.468Z,96501.11
2017-09-13T06:56:01.789Z,96516.34
2017-09-13T06:58:30.109Z,96514.07
2017-09-13T07:00:58.452Z,96486.05
2017-09-13T07:03:26.774Z,96472.36
2017-09-13T07:05:55.086Z,96478.08
2017-09-13T07:08:23.428Z,96492.49
2017-09-13T07:10:51.745Z,96494.11
2017-09-13T07:13:20.058Z,96488.23
2017-09-13T07:15:49.167Z,96466.89
2017-09-13T07:18:18.250Z,96473.68
2017-09-13T07:20:47.336Z,96462.66
2017-09-13T07:23:15.682Z,96473.24
2017-09-13T07:25:44.013Z,96463.97
2017-09-13T07:28:13.126Z,96466.69
2017-09-13T07:30:41.447Z,96460.45
2017-09-13T07:33:09.777Z,96472.09
2017-09-13T07:35:38.886Z,96467.45
2017-09-13T07:38:07.206Z,96484.09
2017-09-13T07:40:35.551Z,96492.05
2017-09-13T07:43:03.870Z,96492.59
2017-09-13T07:45:32.220Z,96481.86
2017-09-13T07:48:00.534Z,96475.81
2017-09-13T07:50:28.851Z,96469.20
2017-09-13T07:52:57.955Z,96476.73
2017-09-13T07:55:27.047Z,96474.28
2017-09-13T07:57:56.155Z,96461.00
2017-09-13T08:00:24.470Z,96459.20
2017-09-13T08:02:52.786Z,96453.89
2017-09-13T08:05:21.131Z,96461.28
2017-09-13T08:07:49.445Z,96462.53
2017-09-13T08:10:17.767Z,96465.14
2017-09-13T08:12:46.107Z,96462.94
2017-09-13T08:15:14.422Z,96472.08
2017-09-13T08:17:42.739Z,96471.08
2017-09-13T08:20:11.085Z,96476.19
2017-09-13T08:22:39.403Z,96477.72
2017-09-13T08:25:07.753Z,96487.85
2017-09-13T08:27:36.066Z,96484.86
2017-09-13T08:30:04.390Z,96499.31
2017-09-13T08:32:32.731Z,96502.21
2017-09-13T08:35:01.056Z,96507.36
2017-09-13T08:37:29.398Z,96522.02
2017-09-13T08:39:57.714Z,96548.39
2017-09-13T08:42:26.034Z,96521.17
2017-09-13T08:44:54.379Z,96524.89
2017-09-13T08:47:22.699Z,96522.81
2017-09-13T08:49:51.051Z,96509.97
2017-09-13T08:52:19.366Z,96502.45
2017-09-13T08:54:47.682Z,96511.88
2017-09-13T08:57:16.799Z,96521.55
2017-09-13T08:59:45.118Z,96511.41
2017-09-13T09:02:13.440Z,96517.09
2017-09-13T09:04:41.783Z,96525.70
2017-09-13T09:07:10.097Z,96523.05
2017-09-13T09:09:39.173Z,96541.25
2017-09-13T09:12:07.517Z,96538.00
2017-09-13T09:14:35.838Z,96516.91
2017-09-13T09:17:04.922Z,96507.20
2017-09-13T09:19:33.262Z,96502.53
2017-09-13T09:22:01.579Z,96501.11
2017-09-13T09:24:29.900Z,96495.47
2017-09-13T09:26:58.248Z,96473.16
2017-09-13T09:29:26.562Z,96477.92
2017-09-13T09:31:54.904Z,96473.47
2017-09-13T09:34:23.218Z,96470.95
2017-09-13T09:36:51.530Z,96479.85
2017-09-13T09:39:19.874Z,96481.66
2017-09-13T09:41:48.191Z,96489.00
2017-09-13T09:44:16.511Z,96487.17
2017-09-13T09:46:45.618Z,96466.02
2017-09-13T09:49:14.695Z,96480.29
2017-09-13T09:51:43.042Z,96484.32
2017-09-13T09:54:11.358Z,96493.64
2017-09-13T09:56:39.674Z,96508.15
2017-09-13T09:59:08.791Z,96486.39
2017-09-13T10:01:37.107Z,96472.61
2017-09-13T10:04:05.445Z,96486.83
2017-09-13T10:06:33.764Z,96475.98
2017-09-13T10:09:02.114Z,96475.80
2017-09-13T10:11:30.430Z,96485.73
2017-09-13T10:13:58.754Z,96478.08
2017-09-13T10:16:27.110Z,96468.86
2017-09-13T10:18:56.191Z,96474.34
2017-09-13T10:21:24.532Z,96461.98
2017-09-13T10:23:52.846Z,96463.36
2017-09-13T10:26:21.163Z,96468.06
2017-09-13T10:28:49.498Z,96448.00
2017-09-13T10:31:17.850Z,96456.28
2017-09-13T10:33:46.197Z,96483.98
2017-09-13T10:36:15.263Z,96458.77
2017-09-13T10:38:43.603Z,96459.66
2017-09-13T10:41:11.949Z,96467.65
2017-09-13T10:43:41.030Z,96467.77
2017-09-13T10:46:09.356Z,96461.67
2017-09-13T10:48:37.695Z,96457.10
2017-09-13T10:51:06.774Z,96461.19
2017-09-13T10:53:35.094Z,96462.13
2017-09-13T10:56:03.426Z,96456.23
2017-09-13T10:58:31.742Z,96477.80
2017-09-13T11:01:00.827Z,96470.95
2017-09-13T11:03:29.939Z,96464.89
2017-09-13T11:05:59.037Z,96474.52
2017-09-13T11:08:27.394Z,96471.73
2017-09-13T11:10:55.716Z,96480.85
2017-09-13T11:13:24.068Z,96487.63
2017-09-13T11:15:53.150Z,96514.77
2017-09-13T11:18:21.465Z,96542.96
2017-09-13T11:20:49.803Z,96543.75
2017-09-13T11:23:18.886Z,96560.09
2017-09-13T11:25:47.239Z,96577.38
2017-09-13T11:28:15.558Z,96577.92
2017-09-13T11:30:43.878Z,96585.27
2017-09-13T11:33:12.214Z,96579.36
2017-09-13T11:35:40.534Z,96566.44
2017-09-13T11:38:09.618Z,96555.05
2017-09-13T11:40:38.731Z,96556.20
2017-09-13T11:43:07.810Z,96554.48
2017-09-13T11:45:36.918Z,96563.77
2017-09-13T11:48:05.998Z,96541.19
2017-09-13T11:50:34.323Z,96555.14
2017-09-13T11:53:02.662Z,96552.95
2017-09-13T11:55:31.751Z,96546.81
2017-09-13T11:58:00.080Z,96570.25
2017-09-13T12:00:28.423Z,96562.61
2017-09-13T12:02:57.502Z,96575.05
2017-09-13T12:05:25.848Z,96577.52
2017-09-13T12:07:54.198Z,96579.49
2017-09-13T12:10:22.514Z,96583.36
2017-09-13T12:12:50.829Z,96563.16
2017-09-13T12:15:19.172Z,96575.44
2017-09-13T12:17:47.486Z,96595.42
2017-09-13T12:20:15.806Z,96575.44
2017-09-13T12:22:44.148Z,96567.64
2017-09-13T12:25:12.468Z,96579.86
2017-09-13T12:27:40.789Z,96590.45
2017-09-13T12:30:09.134Z,96595.47
2017-09-13T12:32:37.454Z,96606.88
2017-09-13T12:35:05.798Z,96611.91
2017-09-13T12:37:34.119Z,96599.13
2017-09-13T12:40:02.443Z,96618.33
2017-09-13T12:42:30.792Z,96595.27
2017-09-13T12:44:59.882Z,96585.91
2017-09-13T12:47:28.194Z,96583.25
2017-09-13T12:49:56.526Z,96591.21
2017-09-13T12:52:24.890Z,96590.68
2017-09-13T12:54:53.237Z,96602.34
2017-09-13T12:57:21.558Z,96632.59
2017-09-13T12:59:49.878Z,96617.23
2017-09-13T13:02:18.978Z,96613.16
2017-09-13T13:04:48.086Z,96598.78
2017-09-13T13:07:16.402Z,96619.27
2017-09-13T13:09:44.752Z,96624.43
2017-09-13T13:12:13.066Z,96625.88
2017-09-13T13:14:41.376Z,96631.22
2017-09-13T13:17:10.496Z,96675.31
2017-09-13T13:19:39.574Z,96634.67
2017-09-13T13:22:07.923Z,96645.50
2017-09-13T13:24:36.251Z,96658.36
2017-09-13T13:27:05.343Z,96665.02
2017-09-13T13:29:34.453Z,96664.27
2017-09-13T13:32:03.532Z,96663.44
2017-09-13T13:34:32.642Z,96663.59
2017-09-13T13:37:01.726Z,96644.80
2017-09-13T13:39:30.811Z,96671.95
2017-09-13T13:41:59.150Z,96654.17
2017-09-13T13:44:27.469Z,96658.72
2017-09-13T13:46:55.806Z,96641.05
2017-09-13T13:49:24.115Z,96668.31
2017-09-13T13:51:52.482Z,96653.09
2017-09-13T13:54:20.813Z,96633.94
2017-09-13T13:56:49.924Z,96637.06
2017-09-13T13:59:18.251Z,96647.91
2017-09-13T14:01:46.574Z,96648.07
2017-09-13T14:04:15.680Z,96649.55
2017-09-13T14:06:44.763Z,96648.51
2017-09-13T14:09:13.877Z,96651.34
2017-09-13T14:11:42.194Z,96653.20
2017-09-13T14:14:10.510Z,96660.94
2017-09-13T14:16:38.858Z,96662.09
2017-09-13T14:19:07.169Z,96657.45
2017-09-13T14:21:35.519Z,96649.25
2017-09-13T14:24:03.851Z,96676.63
2017-09-13T14:26:32.936Z,96666.14
2017-09-13T14:29:02.055Z,96686.62
2017-09-13T14:31:30.374Z,96682.75
2017-09-13T14:33:58.718Z,96701.47
2017-09-13T14:36:27.043Z,96709.48
2017-09-13T14:38:55.387Z,96667.63
2017-09-13T14:41:23.704Z,96702.91
2017-09-13T14:43:52.018Z,96710.81
2017-09-13T14:46:21.126Z,96703.78
2017-09-13T14:48:49.438Z,96703.31
2017-09-13T14:51:17.782Z,96696.29
2017-09-13T14:53:46.866Z,96700.53
2017-09-13T14:56:15.959Z,96704.38
2017-09-13T14:58:45.066Z,96711.58
2017-09-13T15:01:14.148Z,96711.93
2017-09-13T15:03:43.263Z,96721.16
2017-09-13T15:06:12.342Z,96731.39
2017-09-13T15:08:40.682Z,96730.58
2017-09-13T15:11:09.014Z,96713.52
2017-09-13T15:13:38.104Z,96708.33
2017-09-13T15:16:07.227Z,96721.49
2017-09-13T15:18:35.552Z,96720.34
2017-09-13T15:21:03.907Z,96731.52
2017-09-13T15:23:32.227Z,96713.46
2017-09-13T15:26:00.559Z,96712.22
2017-09-13T15:28:28.900Z,96711.27
2017-09-13T15:30:57.221Z,96702.58
2017-09-13T15:33:25.574Z,96702.87
2017-09-13T15:35:54.654Z,96712.64
2017-09-13T15:38:22.979Z,96705.87
2017-09-13T15:40:51.327Z,96695.77
2017-09-13T15:43:20.411Z,96696.44
2017-09-13T15:45:48.759Z,96703.92
2017-09-13T15:48:17.074Z,96706.52
2017-09-13T15:50:45.402Z,96714.83
2017-09-13T15:53:13.757Z,96717.22
2017-09-13T15:55:42.072Z,96714.19
2017-09-13T16:00:38.116Z,96718.66
2017-09-13T16:03:06.449Z,96724.37
2017-09-13T16:05:35.534Z,96732.14
2017-09-13T16:08:03.883Z,96723.69
2017-09-13T16:10:32.214Z,96723.70
2017-09-13T16:13:01.295Z,96729.38
2017-09-13T16:15:30.406Z,96709.64
2017-09-13T16:17:59.486Z,96702.31
2017-09-13T16:20:27.806Z,96726.28
2017-09-13T16:22:56.146Z,96737.22
2017-09-13T16:25:24.495Z,96729.09
2017-09-13T16:27:52.823Z,96702.69
2017-09-13T16:30:21.932Z,96701.23
2017-09-13T16:32:50.256Z,96695.88
2017-09-13T16:35:18.573Z,96684.91
2017-09-13T16:37:47.687Z,96666.43
2017-09-13T16:40:16.002Z,96677.84
2017-09-13T16:42:44.326Z,96673.36
2017-09-13T16:45:13.459Z,96672.98
2017-09-13T16:47:41.779Z,96677.91
2017-09-13T16:50:10.113Z,96686.32
2017-09-13T16:52:38.455Z,96679.58
2017-09-13T16:55:06.786Z,96665.98
2017-09-13T16:57:35.115Z,96647.52
2017-09-13T17:00:03.475Z,96669.18
2017-09-13T17:02:31.795Z,96682.20
2017-09-13T17:05:00.878Z,96680.17
2017-09-13T17:07:29.990Z,96675.17
2017-09-13T17:09:59.072Z,96685.50
2017-09-13T17:12:27.395Z,96698.70
2017-09-13T17:14:55.743Z,96697.36
2017-09-13T17:17:24.851Z,96695.30
2017-09-13T17:19:53.937Z,96701.39
2017-09-13T17:22:23.057Z,96697.27
2017-09-13T17:24:51.370Z,96688.67
2017-09-13T17:27:19.714Z,96682.89
2017-09-13T17:29:48.031Z,96688.67
2017-09-13T17:32:16.350Z,96677.13
2017-09-13T17:34:45.454Z,96673.77
2017-09-13T17:37:14.594Z,96679.11
2017-09-13T17:39:42.914Z,96675.64
2017-09-13T17:42:11.267Z,96671.72
2017-09-13T17:44:39.588Z,96681.72
2017-09-13T17:47:08.671Z,96670.78
2017-09-13T17:49:37.027Z,96688.91
2017-09-13T17:52:05.347Z,96671.54
2017-09-13T17:54:34.438Z,96672.31
2017-09-13T17:57:03.558Z,96661.91
2017-09-13T17:59:31.974Z,96671.15
2017-09-13T18:02:01.147Z,96654.16
2017-09-13T18:04:29.518Z,96663.95
2017-09-13T18:06:57.926Z,96669.87
2017-09-13T18:09:26.353Z,96669.83
2017-09-13T18:11:55.483Z,96662.15
2017-09-13T18:14:24.965Z,96663.69
2017-09-13T18:16:53.346Z,96665.30
2017-09-13T18:19:21.700Z,96665.77
2017-09-13T18:21:50.019Z,96636.81
2017-09-13T18:24:18.342Z,96632.11
2017-09-13T18:26:46.690Z,96664.31
2017-09-13T18:29:15.008Z,96655.16
2017-09-13T18:31:43.322Z,96643.78
2017-09-13T18:34:11.673Z,96651.39
2017-09-13T18:39:07.603Z,96646.23
2017-09-13T18:41:35.950Z,96652.98
2017-09-13T18:44:04.273Z,96653.58
2017-09-13T18:46:32.606Z,96650.41
2017-09-13T18:49:01.909Z,96648.56
2017-09-13T18:51:31.023Z,96660.30
2017-09-13T18:53:59.413Z,96661.38
2017-09-13T18:56:28.530Z,96668.85
2017-09-13T18:58:56.846Z,96669.73
2017-09-13T19:01:25.197Z,96659.64
2017-09-13T19:03:53.519Z,96659.22
2017-09-13T19:06:21.877Z,96653.66
2017-09-13T19:08:50.207Z,96650.83
2017-09-13T19:11:19.301Z,96654.42
2017-09-13T19:13:48.410Z,96655.39
2017-09-13T19:16:16.738Z,96640.78
2017-09-13T19:18:45.091Z,96640.19
2017-09-13T19:21:13.411Z,96641.95
2017-09-13T19:23:41.730Z,96639.13
2017-09-13T19:26:10.839Z,96639.94
2017-09-13T19:28:39.167Z,96652.34
2017-09-13T19:31:07.482Z,96658.55
2017-09-13T19:33:36.595Z,96662.51
2017-09-13T19:36:04.926Z,96656.42
2017-09-13T19:38:33.291Z,96652.16
2017-09-13T19:41:01.614Z,96667.22
2017-09-13T19:43:30.695Z,96676.36
2017-09-13T19:45:59.035Z,96680.42
2017-09-13T19:48:27.363Z,96676.13
2017-09-13T19:50:56.449Z,96675.30
2017-09-13T19:53:24.823Z,96675.12
2017-09-13T19:55:53.134Z,96686.45
2017-09-13T19:58:22.214Z,96685.62
2017-09-13T20:00:50.564Z,96683.09
2017-09-13T20:03:19.642Z,96686.73
2017-09-13T20:05:47.958Z,96686.56
2017-09-13T20:08:16.300Z,96683.06
2017-09-13T20:10:44.624Z,96680.19
2017-09-13T20:13:12.938Z,96674.36
2017-09-13T20:15:41.277Z,96684.09
2017-09-13T20:18:09.590Z,96673.91
2017-09-13T20:20:38.727Z,96663.71
2017-09-13T20:23:07.071Z,96673.91
2017-09-13T20:25:36.156Z,96659.17
2017-09-13T20:28:05.239Z,96670.33
2017-09-13T20:30:33.583Z,96683.11
2017-09-13T20:33:01.911Z,96672.50
2017-09-13T20:35:30.999Z,96659.61
2017-09-13T20:37:59.338Z,96646.03
2017-09-13T20:40:27.655Z,96664.53
2017-09-13T20:42:55.971Z,96668.48
2017-09-13T20:45:24.338Z,96681.48
2017-09-13T20:47:53.438Z,96691.47
2017-09-13T20:50:22.556Z,96695.67
2017-09-13T20:52:50.870Z,96702.38
2017-09-13T20:55:19.181Z,96698.67
2017-09-13T20:57:49.519Z,96691.27
2017-09-13T21:00:17.866Z,96629.16
2017-09-13T21:02:46.202Z,96658.41
2017-09-13T21:05:14.542Z,96663.16
2017-09-13T21:07:42.867Z,96653.17
2017-09-13T21:10:11.188Z,96644.29
2017-09-13T21:12:39.530Z,96659.89
2017-09-13T21:15:07.838Z,96657.14
2017-09-13T21:17:36.177Z,96655.55
2017-09-13T21:20:04.559Z,96652.27
2017-09-13T21:22:32.875Z,96652.78
2017-09-13T21:25:01.191Z,96651.02
2017-09-13T21:27:30.311Z,96636.34
2017-09-13T21:29:58.629Z,96634.97
2017-09-13T21:32:26.952Z,96647.34
2017-09-13T21:34:56.062Z,96641.28
2017-09-13T21:37:24.392Z,96655.53
2017-09-13T21:39:52.707Z,96665.35
2017-09-13T21:42:21.814Z,96662.85
2017-09-13T21:44:50.903Z,96675.08
2017-09-13T21:47:19.983Z,96670.39
2017-09-13T21:49:48.329Z,96664.11
2017-09-13T21:52:16.646Z,96660.73
2017-09-13T21:54:44.976Z,96667.77
2017-09-13T21:57:13.320Z,96667.44
2017-09-13T21:59:42.410Z,96669.45
2017-09-13T22:02:11.496Z,96666.59
2017-09-13T22:04:39.835Z,96649.47
2017-09-13T22:07:08.155Z,96657.97
2017-09-13T22:09:36.474Z,96667.78
2017-09-13T22:12:04.884Z,96669.66
2017-09-13T22:14:33.200Z,96667.93
2017-09-13T22:17:02.284Z,96658.78
2017-09-13T22:19:30.630Z,96649.56
2017-09-13T22:21:58.942Z,96636.17
2017-09-13T22:24:27.262Z,96624.92
2017-09-13T22:26:55.599Z,96631.94
2017-09-13T22:37:05.399Z,96612.77
2017-09-13T22:39:33.719Z,96611.89
2017-09-13T22:42:02.831Z,96607.31
2017-09-13T22:44:31.148Z,96605.67
2017-09-13T22:46:59.486Z,96611.42
2017-09-13T22:49:27.807Z,96602.85
2017-09-13T22:51:56.149Z,96604.44
2017-09-13T22:54:24.464Z,96614.70
2017-09-13T22:56:52.805Z,96623.61
2017-09-13T22:59:21.126Z,96609.72
2017-09-13T23:01:49.444Z,96617.73
2017-09-13T23:04:18.561Z,96631.22
2017-09-13T23:06:46.884Z,96641.66
2017-09-13T23:19:29.714Z,96615.52
2017-09-13T23:21:58.791Z,96601.48
2017-09-13T23:24:28.078Z,96604.42
2017-09-13T23:26:56.423Z,96596.59
2017-09-13T23:29:24.733Z,96600.36
2017-09-13T23:31:53.082Z,96600.53
2017-09-13T23:34:21.394Z,96600.41
2017-09-13T23:36:49.734Z,96578.27
2017-09-13T23:39:18.047Z,96569.50
2017-09-13T23:41:46.375Z,96578.05
2017-09-13T23:44:15.478Z,96581.92
2017-09-13T23:46:44.560Z,96575.90
2017-09-13T23:49:12.906Z,96591.52
2017-09-13T23:51:41.218Z,96597.29
2017-09-13T23:54:09.535Z,96599.77
2017-09-13T23:56:37.873Z,96595.70
2017-09-13T23:59:06.201Z,96591.18
